Taiyuan, China
Current Conditions -  °F | °C
As of 4:00 AM on Friday 19 Dec 2014 (Local Time) from ZBYN Reporting Station
Haze Haze  
Wind Chill:   Ceiling: Unl
Heat Index: 16°   Visibility: 3mi
Dew Point:   Wind: 4mph
Humidity: 53%   Direction: 110°ESE
Pressure: 30.18"   Gusts: NA
Location:  37.87°N, 112.55°E
Report Text: ZBYN 182000Z 11002MPS 5000 HZ NSC M09/M17 Q1022 NOSIG
Loading
Personal Weather Stations






























Interactive Weather Map New forecast layout! Learn more

10-Day Weather Forecast

Advertisements
Track Severe Weather on mobile